createdAt,value
2018-11-12T00:04:33.539Z,9.3
2018-11-12T00:10:02.748Z,9.3
2018-11-12T00:15:30.217Z,9.3
2018-11-12T00:20:57.968Z,9.2
2018-11-12T00:26:26.049Z,9.2
2018-11-12T00:31:59.599Z,9.1
2018-11-12T00:37:23.370Z,9.1
2018-11-12T00:42:57.183Z,9
2018-11-12T00:48:21.186Z,8.9
2018-11-12T00:53:49.941Z,8.9
2018-11-12T00:59:23.757Z,8.9
2018-11-12T01:04:51.251Z,8.8
2018-11-12T01:10:20.048Z,8.8
2018-11-12T01:15:43.801Z,8.8
2018-11-12T01:21:11.808Z,8.8
2018-11-12T01:26:40.559Z,8.8
2018-11-12T01:32:09.117Z,8.8
2018-11-12T01:37:42.881Z,8.8
2018-11-12T01:43:10.658Z,8.9
2018-11-12T01:48:38.716Z,8.9
2018-11-12T01:54:01.171Z,8.8
2018-11-12T01:59:35.245Z,8.8
2018-11-12T02:05:03.920Z,8.8
2018-11-12T02:10:27.752Z,8.7
2018-11-12T02:15:56.501Z,8.7
2018-11-12T02:21:24.039Z,8.8
2018-11-12T02:26:52.851Z,8.8
2018-11-12T02:32:20.602Z,8.7
2018-11-12T02:37:49.362Z,8.7
2018-11-12T02:43:17.078Z,8.6
2018-11-12T02:48:49.807Z,8.5
2018-11-12T02:54:18.837Z,8.5
2018-11-12T02:59:42.359Z,8.4
2018-11-12T03:05:15.023Z,8.4
2018-11-12T03:10:44.052Z,8.3
2018-11-12T03:16:06.477Z,8.2
2018-11-12T03:21:40.220Z,8.1
2018-11-12T03:27:09.180Z,8
2018-11-12T03:32:36.698Z,8
2018-11-12T03:38:00.294Z,7.9
2018-11-12T03:43:28.997Z,8
2018-11-12T03:48:58.063Z,8
2018-11-12T03:54:26.505Z,8
2018-11-12T03:59:55.070Z,8
2018-11-12T04:05:24.029Z,8
2018-11-12T04:10:51.744Z,8
2018-11-12T04:16:20.349Z,8
2018-11-12T04:21:49.167Z,8
2018-11-12T04:27:21.911Z,8
2018-11-12T04:32:50.318Z,8
2018-11-12T04:38:14.272Z,8
2018-11-12T04:43:41.779Z,8
2018-11-12T04:49:10.519Z,8.1
2018-11-12T04:54:43.439Z,8.1
2018-11-12T05:00:12.124Z,8.2
2018-11-12T05:05:40.621Z,8.2
2018-11-12T05:11:03.575Z,8.2
2018-11-12T05:16:32.047Z,8.3
2018-11-12T05:22:00.769Z,8.3
2018-11-12T05:27:29.810Z,8.3
2018-11-12T05:32:57.316Z,8.4
2018-11-12T05:38:30.282Z,8.5
2018-11-12T05:43:53.700Z,8.5
2018-11-12T05:49:27.467Z,8.5
2018-11-12T05:54:50.651Z,8.5
2018-11-12T06:00:18.952Z,8.5
2018-11-12T06:05:46.693Z,8.5
2018-11-12T06:11:15.446Z,8.5
2018-11-12T06:16:44.212Z,8.5
2018-11-12T06:22:13.245Z,8.6
2018-11-12T06:27:41.003Z,8.6
2018-11-12T06:33:13.493Z,8.6
2018-11-12T06:38:42.221Z,8.6
2018-11-12T06:44:05.237Z,8.5
2018-11-12T06:49:37.974Z,8.5
2018-11-12T06:55:01.243Z,8.5
2018-11-12T06:55:05.497Z,8.5
2018-11-12T07:00:28.166Z,8.5
2018-11-12T07:05:56.155Z,8.5
2018-11-12T07:11:23.633Z,8.5
2018-11-12T07:16:52.417Z,8.5
2018-11-12T07:22:20.229Z,8.5
2018-11-12T07:27:54.160Z,8.5
2018-11-12T07:33:16.888Z,8.5
2018-11-12T07:38:45.363Z,8.5
2018-11-12T07:44:14.067Z,8.6
2018-11-12T07:49:47.911Z,8.6
2018-11-12T07:55:16.606Z,8.6
2018-11-12T08:00:40.625Z,8.7
2018-11-12T08:06:08.124Z,8.7
2018-11-12T08:11:35.910Z,8.8
2018-11-12T08:11:36.486Z,8.8
2018-11-12T08:17:04.639Z,8.8
2018-11-12T08:22:32.688Z,8.9
2018-11-12T08:28:00.319Z,8.9
2018-11-12T08:33:28.043Z,9
2018-11-12T08:38:55.782Z,9
2018-11-12T08:44:29.852Z,9.1
2018-11-12T08:49:58.478Z,9.1
2018-11-12T08:55:21.513Z,9.2
2018-11-12T09:00:50.058Z,9.2
2018-11-12T09:06:18.099Z,9.2
2018-11-12T09:11:50.700Z,9.3
2018-11-12T09:17:19.444Z,9.3
2018-11-12T09:22:42.344Z,9.4
2018-11-12T09:28:15.374Z,9.4
2018-11-12T09:33:38.935Z,9.5
2018-11-12T09:39:11.784Z,9.6
2018-11-12T09:44:34.598Z,9.6
2018-11-12T09:50:03.594Z,9.7
2018-11-12T09:55:31.353Z,9.7
2018-11-12T10:01:00.928Z,9.7
2018-11-12T10:06:35.898Z,9.8
2018-11-12T10:12:03.803Z,9.8
2018-11-12T10:17:27.192Z,9.8
2018-11-12T10:22:57.872Z,9.9
2018-11-12T10:28:25.532Z,9.9
2018-11-12T10:33:48.355Z,10
2018-11-12T10:39:17.771Z,10
2018-11-12T10:44:46.323Z,10
2018-11-12T10:50:15.219Z,10
2018-11-12T10:55:43.969Z,10
2018-11-12T11:01:17.010Z,10
2018-11-12T11:06:39.844Z,10
2018-11-12T11:12:13.431Z,10
2018-11-12T11:17:41.357Z,10
2018-11-12T11:23:04.173Z,10.1
2018-11-12T11:28:33.093Z,10.1
2018-11-12T11:34:01.895Z,10.1
2018-11-12T11:39:30.075Z,10.1
2018-11-12T11:45:02.973Z,10.1
2018-11-12T11:50:26.955Z,10.1
2018-11-12T11:55:55.685Z,10.1
2018-11-12T12:01:23.343Z,10.1
2018-11-12T12:06:51.190Z,10.1
2018-11-12T12:12:24.073Z,10.1
2018-11-12T12:17:48.199Z,10.1
2018-11-12T12:23:21.838Z,10.1
2018-11-12T12:28:46.003Z,10.1
2018-11-12T12:34:13.949Z,10.1
2018-11-12T12:39:42.724Z,10.1
2018-11-12T12:45:10.792Z,10.1
2018-11-12T12:50:38.485Z,10.2
2018-11-12T12:56:11.146Z,10.2
2018-11-12T13:01:40.469Z,10.2
2018-11-12T13:07:03.108Z,10.2
2018-11-12T13:12:35.765Z,10.2
2018-11-12T13:18:04.649Z,10.2
2018-11-12T13:23:28.597Z,10.2
2018-11-12T13:29:02.690Z,10.2
2018-11-12T13:34:25.593Z,10.2
2018-11-12T13:39:59.534Z,10.2
2018-11-12T13:45:22.322Z,10.2
2018-11-12T13:50:49.983Z,10.2
2018-11-12T13:56:17.858Z,10.2
2018-11-12T14:01:51.787Z,10.2
2018-11-12T14:07:14.607Z,10.2
2018-11-12T14:12:47.859Z,10.1
2018-11-12T14:18:10.393Z,10.2
2018-11-12T14:23:38.317Z,10.2
2018-11-12T14:29:06.417Z,10.2
2018-11-12T14:34:40.278Z,10.2
2018-11-12T14:40:02.907Z,10.2
2018-11-12T14:45:30.773Z,10.2
2018-11-12T14:50:58.677Z,10.1
2018-11-12T14:56:27.559Z,10.1
2018-11-12T15:01:56.697Z,10.1
2018-11-12T15:07:25.537Z,10.1
2018-11-12T15:12:54.183Z,10.1
2018-11-12T15:18:22.153Z,10.1
2018-11-12T15:23:50.941Z,10.1
2018-11-12T15:29:19.829Z,10.1
2018-11-12T15:34:47.930Z,10.1
2018-11-12T15:40:15.798Z,10.1
2018-11-12T15:45:48.448Z,10.1
2018-11-12T15:51:12.362Z,10.1
2018-11-12T15:56:45.325Z,10.1
2018-11-12T16:02:09.026Z,10.1
2018-11-12T16:07:36.923Z,10
2018-11-12T16:13:04.746Z,10
2018-11-12T16:18:37.603Z,9.9
2018-11-12T16:24:00.491Z,9.9
2018-11-12T16:29:28.659Z,9.9
2018-11-12T16:34:56.228Z,9.9
2018-11-12T16:40:24.095Z,9.9
2018-11-12T16:45:51.954Z,9.9
2018-11-12T16:51:20.806Z,9.9
2018-11-12T16:56:54.682Z,9.9
2018-11-12T17:02:23.552Z,9.9
2018-11-12T17:07:46.819Z,9.9
2018-11-12T17:13:14.261Z,9.9
2018-11-12T17:18:48.388Z,9.9
2018-11-12T17:24:15.977Z,9.9
2018-11-12T17:29:38.853Z,9.8
2018-11-12T17:35:06.949Z,9.8
2018-11-12T17:40:35.853Z,9.8
2018-11-12T17:46:03.660Z,9.8
2018-11-12T17:51:32.221Z,9.8
2018-11-12T17:57:00.253Z,9.8
2018-11-12T18:02:28.966Z,9.8
2018-11-12T18:08:02.867Z,9.8
2018-11-12T18:13:31.744Z,9.8
2018-11-12T18:18:59.540Z,9.8
2018-11-12T18:24:22.369Z,9.8
2018-11-12T18:29:50.376Z,9.8
2018-11-12T18:35:24.123Z,9.8
2018-11-12T18:40:47.904Z,9.8
2018-11-12T18:46:15.746Z,9.8
2018-11-12T18:51:44.650Z,9.8
2018-11-12T18:57:13.465Z,9.8
2018-11-12T19:02:41.319Z,9.7
2018-11-12T19:08:10.261Z,9.7
2018-11-12T19:13:43.256Z,9.7
2018-11-12T19:19:06.095Z,9.7
2018-11-12T19:24:39.740Z,9.7
2018-11-12T19:30:08.806Z,9.7
2018-11-12T19:35:31.378Z,9.7
2018-11-12T19:41:00.647Z,9.7
2018-11-12T19:46:33.024Z,9.6
2018-11-12T19:51:56.245Z,9.6
2018-11-12T19:57:29.712Z,9.6
2018-11-12T20:02:53.775Z,9.6
2018-11-12T20:08:22.713Z,9.5
2018-11-12T20:13:55.364Z,9.5
2018-11-12T20:19:17.984Z,9.5
2018-11-12T20:24:45.841Z,9.5
2018-11-12T20:30:13.663Z,9.5
2018-11-12T20:35:47.754Z,9.5
2018-11-12T20:41:11.352Z,9.5
2018-11-12T20:46:39.098Z,9.5
2018-11-12T20:52:07.944Z,9.5
2018-11-12T20:57:35.799Z,9.5
2018-11-12T21:03:03.590Z,9.4
2018-11-12T21:08:31.388Z,9.4
2018-11-12T21:13:59.249Z,9.3
2018-11-12T21:19:27.412Z,9.3
2018-11-12T21:24:54.825Z,9.3
2018-11-12T21:30:22.913Z,9.3
2018-11-12T21:35:51.442Z,9.3
2018-11-12T21:41:19.226Z,9.3
2018-11-12T21:46:52.029Z,9.3
2018-11-12T21:52:15.818Z,9.3
2018-11-12T21:57:48.671Z,9.2
2018-11-12T22:03:17.492Z,9.2
2018-11-12T22:08:45.433Z,9.2
2018-11-12T22:14:08.282Z,9.2
2018-11-12T22:19:41.091Z,9.2
2018-11-12T22:25:04.630Z,9.1
2018-11-12T22:30:33.422Z,9.1
2018-11-12T22:36:01.148Z,9
2018-11-12T22:41:34.237Z,9
2018-11-12T22:46:57.746Z,9
2018-11-12T22:52:30.512Z,8.9
2018-11-12T22:57:59.562Z,8.9
2018-11-12T23:03:23.093Z,8.9
2018-11-12T23:08:52.079Z,8.9
2018-11-12T23:14:20.913Z,8.9
2018-11-12T23:19:53.531Z,9
2018-11-12T23:25:22.257Z,9
2018-11-12T23:30:46.016Z,9
2018-11-12T23:36:19.334Z,9
2018-11-12T23:41:41.554Z,9
2018-11-12T23:47:09.317Z,9.1
2018-11-12T23:52:37.093Z,9.1
2018-11-12T23:58:10.433Z,9.1
